Time;durP1;ratioP1;P1;durP2;ratioP2;P2;SDS_P1;SDS_P2;PMS_P1;PMS_P2;Temp;Humidity;BMP_temperature;BMP_pressure;BME280_temperature;BME280_humidity;BME280_pressure;Samples;Min_cycle;Max_cycle;Signal;HPM_P1;HPM_P2
2021/06/06 00:01:24;;;;;;;12.70;10.98;;;19.30;67.20;;;;;;1479333;40;20045;-59
2021/06/06 00:02:45;;;;;;;13.57;11.27;;;19.30;67.30;;;;;;1479021;40;20108;-60
2021/06/06 00:04:11;;;;;;;13.75;10.70;;;19.30;67.30;;;;;;1482270;40;20040;-59
2021/06/06 00:05:43;;;;;;;14.85;10.73;;;19.30;67.40;;;;;;1480590;40;20359;-59
2021/06/06 00:07:04;;;;;;;14.35;10.70;;;19.30;67.40;;;;;;1477722;40;20073;-59
2021/06/06 00:08:27;;;;;;;13.73;10.35;;;19.30;67.40;;;;;;1481008;40;20112;-59
2021/06/06 00:09:48;;;;;;;12.88;11.00;;;19.30;67.30;;;;;;1479375;40;20124;-59
2021/06/06 00:11:15;;;;;;;12.30;9.98;;;19.30;67.30;;;;;;1478072;40;20045;-60
2021/06/06 00:12:38;;;;;;;14.40;11.10;;;19.30;67.40;;;;;;1479810;40;20025;-60
2021/06/06 00:14:03;;;;;;;12.27;10.25;;;19.30;67.40;;;;;;1480560;40;20462;-59
2021/06/06 00:15:23;;;;;;;15.88;10.75;;;19.30;67.40;;;;;;1479119;40;20149;-59
2021/06/06 00:16:54;;;;;;;13.73;10.40;;;19.30;67.40;;;;;;1475063;40;20456;-59
2021/06/06 00:18:15;;;;;;;14.35;11.00;;;19.30;67.50;;;;;;1479758;40;20040;-59
2021/06/06 00:19:38;;;;;;;14.52;11.23;;;19.30;67.40;;;;;;1478637;40;20052;-60
2021/06/06 00:20:59;;;;;;;14.75;10.48;;;19.20;67.40;;;;;;1480683;40;20096;-60
2021/06/06 00:22:19;;;;;;;12.15;10.77;;;19.30;67.50;;;;;;1479931;40;20065;-59
2021/06/06 00:23:40;;;;;;;14.18;11.68;;;19.20;67.50;;;;;;1480080;40;20099;-60
2021/06/06 00:25:03;;;;;;;15.13;11.65;;;19.20;67.50;;;;;;1479856;40;20053;-58
2021/06/06 00:26:25;;;;;;;16.92;11.65;;;19.20;67.50;;;;;;1477956;40;20456;-58
2021/06/06 00:27:46;;;;;;;14.27;11.18;;;19.30;67.60;;;;;;1479081;40;20037;-60
2021/06/06 00:29:07;;;;;;;14.70;10.60;;;19.20;67.50;;;;;;1480272;40;20178;-59
2021/06/06 00:30:28;;;;;;;15.25;11.35;;;19.20;67.60;;;;;;1478145;40;20029;-59
2021/06/06 00:31:49;;;;;;;15.60;11.25;;;19.20;67.60;;;;;;1480569;40;20100;-59
2021/06/06 00:33:10;;;;;;;13.15;10.65;;;19.20;67.50;;;;;;1481446;40;20025;-59
2021/06/06 00:34:31;;;;;;;13.48;10.88;;;19.20;67.50;;;;;;1477346;40;20033;-59
2021/06/06 00:35:52;;;;;;;13.65;10.90;;;19.20;67.50;;;;;;1475155;40;20033;-60
2021/06/06 00:37:15;;;;;;;12.27;10.50;;;19.20;67.50;;;;;;1480638;40;20021;-60
2021/06/06 00:38:35;;;;;;;12.98;10.57;;;19.20;67.60;;;;;;1481026;40;20399;-59
2021/06/06 00:39:56;;;;;;;13.93;10.75;;;19.20;67.60;;;;;;1481198;40;20043;-59
2021/06/06 00:41:19;;;;;;;12.82;10.77;;;19.20;67.60;;;;;;1481156;40;20365;-59
2021/06/06 00:42:40;;;;;;;13.23;11.23;;;19.20;67.70;;;;;;1479672;40;20159;-59
2021/06/06 00:44:01;;;;;;;13.20;10.82;;;19.20;67.70;;;;;;1479956;40;20063;-59
2021/06/06 00:45:26;;;;;;;13.13;11.02;;;19.20;67.70;;;;;;1480054;40;20569;-60
2021/06/06 00:46:47;;;;;;;14.48;12.02;;;19.20;67.70;;;;;;1478476;40;20354;-60
2021/06/06 00:48:09;;;;;;;13.55;10.70;;;19.10;67.60;;;;;;1480452;40;20119;-59
2021/06/06 00:49:30;;;;;;;14.68;10.85;;;19.10;67.60;;;;;;1479853;40;20362;-60
2021/06/06 00:50:56;;;;;;;13.13;10.45;;;19.20;67.70;;;;;;1479167;40;20029;-59
2021/06/06 00:52:19;;;;;;;13.13;10.73;;;19.10;67.70;;;;;;1480978;40;20036;-60
2021/06/06 00:53:43;;;;;;;11.68;10.10;;;19.10;67.60;;;;;;1479599;40;20044;-60
2021/06/06 00:55:07;;;;;;;13.85;10.68;;;19.10;67.60;;;;;;1482299;40;20048;-60
2021/06/06 00:56:28;;;;;;;12.90;10.80;;;19.10;67.60;;;;;;1475992;40;20030;-59
2021/06/06 00:57:50;;;;;;;12.35;10.60;;;19.20;67.70;;;;;;1478735;40;20503;-60
2021/06/06 00:59:13;;;;;;;14.15;11.20;;;19.10;67.60;;;;;;1482509;40;20029;-59
2021/06/06 01:00:40;;;;;;;14.18;11.20;;;19.10;68.30;;;;;;1479044;40;20033;-59
2021/06/06 01:02:02;;;;;;;13.25;10.68;;;19.10;67.60;;;;;;1477538;40;20068;-59
2021/06/06 01:03:25;;;;;;;13.65;10.80;;;19.10;67.60;;;;;;1481510;40;20017;-59
2021/06/06 01:04:46;;;;;;;13.68;10.15;;;19.10;67.60;;;;;;1482790;40;20402;-59
2021/06/06 01:06:30;;;;;;;12.82;10.18;;;19.10;67.50;;;;;;1479582;40;20039;-60
2021/06/06 01:07:51;;;;;;;12.15;10.18;;;19.10;67.50;;;;;;1479455;40;20025;-60
2021/06/06 01:09:14;;;;;;;13.52;10.82;;;19.10;67.50;;;;;;1479164;40;20073;-60
2021/06/06 01:10:35;;;;;;;12.57;10.27;;;19.10;67.40;;;;;;1479272;40;20110;-59
2021/06/06 01:12:23;;;;;;;13.77;10.55;;;19.10;67.50;;;;;;1475338;40;20030;-59
2021/06/06 01:13:49;;;;;;;13.77;10.60;;;19.10;67.50;;;;;;1481386;40;20052;-60
2021/06/06 01:15:18;;;;;;;13.25;10.50;;;19.10;67.40;;;;;;1478367;40;20052;-59
2021/06/06 01:17:03;;;;;;;15.27;10.75;;;19.10;67.40;;;;;;1479266;40;20087;-59
2021/06/06 01:18:29;;;;;;;12.23;10.13;;;19.00;67.40;;;;;;1480154;40;20033;-59
2021/06/06 01:20:33;;;;;;;12.98;10.70;;;19.10;67.40;;;;;;1481444;40;20037;-59
2021/06/06 01:22:28;;;;;;;16.73;11.50;;;19.10;67.30;;;;;;1480121;40;20052;-60
2021/06/06 01:24:08;;;;;;;13.95;11.23;;;19.10;67.30;;;;;;1480593;40;20760;-59
2021/06/06 01:25:34;;;;;;;13.73;10.80;;;19.10;67.30;;;;;;1478657;40;20386;-59
2021/06/06 01:27:01;;;;;;;16.60;11.52;;;19.10;67.20;;;;;;1479908;40;20032;-59
2021/06/06 01:28:46;;;;;;;13.98;10.88;;;19.10;67.20;;;;;;1479784;40;20105;-59
2021/06/06 01:30:17;;;;;;;13.43;11.70;;;19.00;67.10;;;;;;1480052;40;20044;-58
2021/06/06 01:31:42;;;;;;;15.15;11.15;;;19.00;67.10;;;;;;1478870;40;20079;-59
2021/06/06 01:33:09;;;;;;;13.38;11.27;;;19.10;67.20;;;;;;1479365;40;20087;-59
2021/06/06 01:34:32;;;;;;;14.52;11.35;;;19.10;67.10;;;;;;1481430;40;20109;-59
2021/06/06 01:36:07;;;;;;;13.80;11.88;;;19.00;67.20;;;;;;1480147;40;20032;-59
2021/06/06 01:37:29;;;;;;;15.30;11.85;;;19.00;67.10;;;;;;1480051;40;20031;-60
2021/06/06 01:38:57;;;;;;;14.88;11.25;;;19.10;67.20;;;;;;1480067;40;20090;-59
2021/06/06 01:40:24;;;;;;;15.68;12.55;;;19.00;67.10;;;;;;1481540;40;20025;-59
2021/06/06 01:41:50;;;;;;;13.68;11.25;;;19.00;67.10;;;;;;1479236;40;20037;-60
2021/06/06 01:43:19;;;;;;;15.27;11.68;;;19.00;67.10;;;;;;1478742;40;20040;-59
2021/06/06 01:44:44;;;;;;;15.20;12.20;;;19.00;67.10;;;;;;1479221;40;20091;-58
2021/06/06 01:46:15;;;;;;;15.13;11.93;;;19.00;67.10;;;;;;1478883;40;20036;-59
2021/06/06 01:47:37;;;;;;;13.98;11.45;;;19.00;67.00;;;;;;1479945;40;20020;-59
2021/06/06 01:48:58;;;;;;;16.33;12.88;;;19.10;67.10;;;;;;1482449;40;20071;-60
2021/06/06 01:50:22;;;;;;;15.30;12.52;;;19.00;67.00;;;;;;1477660;40;20127;-59
2021/06/06 01:51:51;;;;;;;14.70;12.20;;;19.00;67.10;;;;;;1479360;40;20045;-59
2021/06/06 01:53:14;;;;;;;14.20;11.90;;;19.00;67.00;;;;;;1481638;40;20032;-59
2021/06/06 01:54:37;;;;;;;14.30;12.07;;;19.00;67.00;;;;;;1479973;40;20044;-60
2021/06/06 01:56:01;;;;;;;14.88;12.15;;;19.00;66.90;;;;;;1479635;40;20039;-60
2021/06/06 01:57:24;;;;;;;15.25;11.60;;;19.00;66.90;;;;;;1478305;40;20355;-59
2021/06/06 01:58:46;;;;;;;13.98;11.30;;;19.00;66.90;;;;;;1479975;40;20048;-59
2021/06/06 02:00:12;;;;;;;14.80;12.13;;;19.00;66.90;;;;;;1479342;40;20037;-60
2021/06/06 02:01:34;;;;;;;16.05;12.32;;;19.00;66.80;;;;;;1479628;40;20029;-59
2021/06/06 02:02:56;;;;;;;12.75;11.02;;;19.00;66.90;;;;;;1479269;40;20043;-59
2021/06/06 02:04:18;;;;;;;13.32;11.00;;;19.00;66.80;;;;;;1480774;40;20047;-59
2021/06/06 02:05:40;;;;;;;14.90;12.02;;;18.90;66.90;;;;;;1478780;40;20029;-59
2021/06/06 02:07:28;;;;;;;13.80;11.73;;;18.90;66.90;;;;;;1480847;40;20077;-59
2021/06/06 02:08:49;;;;;;;14.75;11.32;;;18.90;66.80;;;;;;1478116;40;20029;-59
2021/06/06 02:10:25;;;;;;;16.60;11.68;;;19.00;67.00;;;;;;1479155;40;20045;-59
2021/06/06 02:11:56;;;;;;;13.93;11.73;;;19.00;66.80;;;;;;1478993;40;20029;-59
2021/06/06 02:13:22;;;;;;;13.15;10.65;;;19.00;66.80;;;;;;1481457;40;20037;-59
2021/06/06 02:14:46;;;;;;;14.30;10.88;;;18.90;66.70;;;;;;1480316;40;20078;-60
2021/06/06 02:16:07;;;;;;;11.98;10.15;;;19.00;66.80;;;;;;1477762;40;20033;-59
2021/06/06 02:17:31;;;;;;;16.77;12.80;;;19.00;66.90;;;;;;1480265;40;20033;-59
2021/06/06 02:18:52;;;;;;;12.70;11.05;;;18.90;66.90;;;;;;1482809;40;20045;-59
2021/06/06 02:20:14;;;;;;;14.63;11.27;;;18.90;66.90;;;;;;1480770;40;20044;-59
2021/06/06 02:21:36;;;;;;;13.25;11.32;;;18.90;66.90;;;;;;1480101;40;20029;-59
2021/06/06 02:22:58;;;;;;;15.30;11.68;;;18.90;67.00;;;;;;1481097;40;20039;-59
2021/06/06 02:24:19;;;;;;;12.80;11.27;;;18.90;67.10;;;;;;1481090;40;20060;-59
2021/06/06 02:25:40;;;;;;;13.88;11.70;;;18.90;67.20;;;;;;1479068;40;20385;-59
2021/06/06 02:27:33;;;;;;;14.23;11.82;;;18.90;67.10;;;;;;1478380;40;20130;-59
2021/06/06 02:29:29;;;;;;;13.35;10.07;;;18.90;67.30;;;;;;1477337;40;20377;-59
2021/06/06 02:31:01;;;;;;;13.60;10.40;;;18.90;67.30;;;;;;1478619;40;20045;-59
2021/06/06 02:32:43;;;;;;;14.75;10.77;;;18.90;67.20;;;;;;1481463;40;20035;-59
2021/06/06 02:34:23;;;;;;;13.00;10.70;;;18.80;67.30;;;;;;1474407;40;20046;-59
2021/06/06 02:35:57;;;;;;;13.35;10.77;;;18.80;67.30;;;;;;1479479;40;20027;-59
2021/06/06 02:37:28;;;;;;;12.18;10.07;;;18.80;67.40;;;;;;1476768;40;20037;-59
2021/06/06 02:38:51;;;;;;;13.65;11.23;;;18.80;67.40;;;;;;1477651;40;20025;-59
2021/06/06 02:40:41;;;;;;;13.50;10.95;;;18.80;67.50;;;;;;1474125;40;20374;-59
2021/06/06 02:42:14;;;;;;;14.00;10.77;;;18.80;67.90;;;;;;1482159;40;20028;-60
2021/06/06 02:43:40;;;;;;;12.70;11.13;;;18.80;67.70;;;;;;1478536;40;20302;-59
2021/06/06 02:45:11;;;;;;;15.10;10.85;;;18.80;67.80;;;;;;1479976;40;20047;-59
2021/06/06 02:46:34;;;;;;;13.00;10.82;;;18.80;67.90;;;;;;1482869;40;20091;-59
2021/06/06 02:48:01;;;;;;;12.85;10.77;;;18.80;67.90;;;;;;1475953;40;20034;-59
2021/06/06 02:49:27;;;;;;;13.95;10.68;;;18.80;68.00;;;;;;1479909;40;20021;-60
2021/06/06 02:50:49;;;;;;;13.02;10.63;;;18.70;68.10;;;;;;1480859;40;20596;-60
2021/06/06 02:52:21;;;;;;;12.90;10.73;;;18.70;68.20;;;;;;1480678;40;20033;-59
2021/06/06 02:54:03;;;;;;;15.98;10.70;;;18.70;68.40;;;;;;1478247;40;20084;-59
2021/06/06 02:55:31;;;;;;;13.60;10.50;;;18.70;68.50;;;;;;1476870;40;20041;-59
2021/06/06 02:56:57;;;;;;;12.65;10.48;;;18.70;68.40;;;;;;1479225;40;20021;-59
2021/06/06 02:58:24;;;;;;;14.52;9.95;;;18.70;68.50;;;;;;1477685;40;20045;-60
2021/06/06 03:00:00;;;;;;;15.30;11.32;;;18.70;68.60;;;;;;1480440;40;20390;-59
2021/06/06 03:01:30;;;;;;;14.20;11.18;;;18.70;68.70;;;;;;1479775;40;20052;-60
2021/06/06 03:02:57;;;;;;;15.00;10.75;;;18.70;68.80;;;;;;1476726;40;20046;-59
2021/06/06 03:04:22;;;;;;;12.75;10.00;;;18.70;69.00;;;;;;1478495;40;20273;-59
2021/06/06 03:05:43;;;;;;;13.23;11.02;;;18.70;69.10;;;;;;1479649;40;20110;-59
2021/06/06 03:07:08;;;;;;;13.18;10.38;;;18.70;69.20;;;;;;1477483;40;20051;-60
2021/06/06 03:08:29;;;;;;;13.85;11.15;;;18.70;69.40;;;;;;1481263;40;20029;-59
2021/06/06 03:09:51;;;;;;;13.15;10.35;;;18.60;69.90;;;;;;1474622;40;20134;-60
2021/06/06 03:11:14;;;;;;;13.93;10.52;;;18.60;69.30;;;;;;1478580;40;20030;-59
2021/06/06 03:12:36;;;;;;;12.98;10.55;;;18.60;69.50;;;;;;1479873;40;20115;-59
2021/06/06 03:14:03;;;;;;;13.27;11.30;;;18.60;69.70;;;;;;1473688;40;20292;-59
2021/06/06 03:15:31;;;;;;;13.43;10.88;;;18.60;69.90;;;;;;1478661;40;20036;-59
2021/06/06 03:16:59;;;;;;;12.60;10.95;;;18.50;70.00;;;;;;1475457;40;20032;-59
2021/06/06 03:18:21;;;;;;;15.93;11.82;;;18.50;70.00;;;;;;1479222;40;20044;-59
2021/06/06 03:19:46;;;;;;;14.60;10.75;;;18.50;70.00;;;;;;1481747;40;20258;-59
2021/06/06 03:21:44;;;;;;;16.90;11.25;;;18.50;70.20;;;;;;1480920;40;20025;-59
2021/06/06 03:23:07;;;;;;;13.93;10.75;;;18.50;70.30;;;;;;1464113;40;20070;-59
2021/06/06 03:24:52;;;;;;;13.77;10.77;;;18.60;70.20;;;;;;1481556;40;20036;-59
2021/06/06 03:26:13;;;;;;;12.48;10.13;;;18.50;70.60;;;;;;1478769;40;20061;-59
2021/06/06 03:27:38;;;;;;;12.30;10.15;;;18.50;70.20;;;;;;1480649;40;20029;-59
2021/06/06 03:29:05;;;;;;;14.55;10.68;;;18.50;70.50;;;;;;1478283;40;20064;-58
2021/06/06 03:30:25;;;;;;;14.10;11.43;;;18.50;70.60;;;;;;1479134;40;20033;-59
2021/06/06 03:31:55;;;;;;;13.68;11.57;;;18.50;70.60;;;;;;1480155;40;20039;-59
2021/06/06 03:33:30;;;;;;;16.20;11.93;;;18.40;70.60;;;;;;1480448;40;20359;-60
2021/06/06 03:34:51;;;;;;;14.15;11.57;;;18.40;70.70;;;;;;1480774;40;20048;-59
2021/06/06 03:36:15;;;;;;;17.20;11.55;;;18.40;70.50;;;;;;1481543;40;20024;-60
2021/06/06 03:37:38;;;;;;;14.25;11.45;;;18.40;70.60;;;;;;1481525;40;20069;-60
2021/06/06 03:39:00;;;;;;;15.20;11.25;;;18.40;70.70;;;;;;1482064;40;20027;-60
2021/06/06 03:40:24;;;;;;;14.85;11.82;;;18.40;70.80;;;;;;1479001;40;20138;-59
2021/06/06 03:41:45;;;;;;;14.70;11.88;;;18.40;70.90;;;;;;1481194;40;20122;-59
2021/06/06 03:43:09;;;;;;;14.77;11.23;;;18.40;70.90;;;;;;1480543;40;20049;-60
2021/06/06 03:44:30;;;;;;;17.05;11.85;;;18.40;70.90;;;;;;1478904;40;20026;-60
2021/06/06 03:45:51;;;;;;;16.00;11.38;;;18.40;70.90;;;;;;1477865;40;20049;-60
2021/06/06 03:47:12;;;;;;;16.33;12.77;;;18.40;70.90;;;;;;1482056;40;20025;-59
2021/06/06 03:48:33;;;;;;;14.70;11.80;;;18.40;71.00;;;;;;1474909;40;20033;-59
2021/06/06 03:49:55;;;;;;;17.38;12.55;;;18.40;71.00;;;;;;1478436;40;20035;-60
2021/06/06 03:51:17;;;;;;;17.00;12.48;;;18.40;71.00;;;;;;1481987;40;20515;-59
2021/06/06 03:52:39;;;;;;;15.82;12.43;;;18.40;70.90;;;;;;1481279;40;20036;-59
2021/06/06 03:54:00;;;;;;;16.63;13.52;;;18.40;70.90;;;;;;1482339;40;20044;-59
2021/06/06 03:55:22;;;;;;;17.35;12.93;;;18.40;70.90;;;;;;1482100;40;20036;-59
2021/06/06 03:56:45;;;;;;;15.38;12.70;;;18.40;71.00;;;;;;1481486;40;20033;-59
2021/06/06 03:58:06;;;;;;;15.63;12.95;;;18.40;71.00;;;;;;1478879;40;20376;-59
2021/06/06 03:59:27;;;;;;;17.02;13.38;;;18.40;71.00;;;;;;1479418;40;20377;-59
2021/06/06 04:00:49;;;;;;;19.52;13.68;;;18.40;71.00;;;;;;1479948;40;20036;-59
2021/06/06 04:02:11;;;;;;;18.42;14.30;;;18.40;70.90;;;;;;1481704;40;20032;-59
2021/06/06 04:03:32;;;;;;;18.17;13.68;;;18.40;70.90;;;;;;1480016;40;20674;-58
2021/06/06 04:04:53;;;;;;;16.77;14.15;;;18.40;70.80;;;;;;1480014;40;20275;-60
2021/06/06 04:06:14;;;;;;;19.63;14.75;;;18.40;70.90;;;;;;1481450;40;20134;-59
2021/06/06 04:07:35;;;;;;;18.08;15.07;;;18.40;70.90;;;;;;1480665;40;20247;-59
2021/06/06 04:08:56;;;;;;;18.98;14.63;;;18.40;70.80;;;;;;1479935;40;20037;-59
2021/06/06 04:10:17;;;;;;;21.00;16.33;;;18.40;70.80;;;;;;1479536;40;20033;-59
2021/06/06 04:11:39;;;;;;;21.05;16.48;;;18.40;70.80;;;;;;1480630;40;20352;-59
2021/06/06 04:13:00;;;;;;;20.02;15.60;;;18.40;70.80;;;;;;1478928;40;20362;-60
2021/06/06 04:14:20;;;;;;;21.60;15.32;;;18.40;70.90;;;;;;1479470;40;20459;-60
2021/06/06 04:15:41;;;;;;;19.63;14.65;;;18.40;70.90;;;;;;1478781;40;20033;-60
2021/06/06 04:17:03;;;;;;;21.88;15.68;;;18.40;71.00;;;;;;1480417;40;20069;-59
2021/06/06 04:18:28;;;;;;;20.10;15.52;;;18.40;71.00;;;;;;1480519;40;20416;-59
2021/06/06 04:19:49;;;;;;;21.70;16.00;;;18.40;71.00;;;;;;1481018;40;20065;-59
2021/06/06 04:21:14;;;;;;;22.10;16.20;;;18.40;70.90;;;;;;1480934;40;20017;-59
2021/06/06 04:22:35;;;;;;;24.95;17.23;;;18.40;70.90;;;;;;1478422;40;20056;-59
2021/06/06 04:23:56;;;;;;;23.23;16.50;;;18.40;71.00;;;;;;1480905;40;20123;-60
2021/06/06 04:25:18;;;;;;;20.48;15.80;;;18.40;70.90;;;;;;1478962;40;20033;-59
2021/06/06 04:26:39;;;;;;;23.30;17.08;;;18.40;70.90;;;;;;1479407;40;20069;-60
2021/06/06 04:28:00;;;;;;;21.75;16.92;;;18.40;71.00;;;;;;1480520;40;20024;-58
2021/06/06 04:29:21;;;;;;;21.15;17.15;;;18.40;71.00;;;;;;1481892;40;20664;-59
2021/06/06 04:30:42;;;;;;;21.73;16.40;;;18.40;70.90;;;;;;1480068;40;20037;-59
2021/06/06 04:32:04;;;;;;;25.60;17.80;;;18.40;70.90;;;;;;1478276;40;20079;-60
2021/06/06 04:33:25;;;;;;;24.90;17.75;;;18.40;71.00;;;;;;1479648;40;20029;-59
2021/06/06 04:34:48;;;;;;;26.08;18.38;;;18.40;71.00;;;;;;1481763;40;20094;-59
2021/06/06 04:36:10;;;;;;;27.20;18.48;;;18.40;71.00;;;;;;1479644;40;20029;-60
2021/06/06 04:37:31;;;;;;;25.25;19.00;;;18.40;70.90;;;;;;1480148;40;20021;-59
2021/06/06 04:38:51;;;;;;;25.70;19.35;;;18.40;70.90;;;;;;1479955;40;20057;-59
2021/06/06 04:40:14;;;;;;;26.88;18.75;;;18.40;71.00;;;;;;1478760;40;20037;-60
2021/06/06 04:41:35;;;;;;;24.95;19.00;;;18.40;71.00;;;;;;1478176;40;20037;-59
2021/06/06 04:42:56;;;;;;;29.05;19.02;;;18.40;71.00;;;;;;1480117;40;20045;-59
2021/06/06 04:44:17;;;;;;;25.60;18.63;;;18.40;71.10;;;;;;1481905;40;20041;-59
2021/06/06 04:45:37;;;;;;;26.35;19.83;;;18.40;71.10;;;;;;1478665;40;20025;-59
2021/06/06 04:46:59;;;;;;;27.15;19.80;;;18.40;71.10;;;;;;1480778;40;20032;-59
2021/06/06 04:48:29;;;;;;;27.33;20.13;;;18.40;71.10;;;;;;1481720;40;20025;-59
2021/06/06 04:49:50;;;;;;;29.33;20.00;;;18.40;71.20;;;;;;1478496;40;20139;-59
2021/06/06 04:51:17;;;;;;;28.83;20.27;;;18.40;71.20;;;;;;1480094;40;20040;-59
2021/06/06 04:52:38;;;;;;;31.17;20.15;;;18.40;71.20;;;;;;1481972;40;20346;-59
2021/06/06 04:53:59;;;;;;;29.95;20.17;;;18.40;71.20;;;;;;1480085;40;20290;-59
2021/06/06 04:55:20;;;;;;;28.85;19.60;;;18.40;71.90;;;;;;1481879;40;20028;-60
2021/06/06 04:56:41;;;;;;;31.45;20.55;;;18.40;71.20;;;;;;1479140;40;20045;-60
2021/06/06 04:58:03;;;;;;;29.67;20.95;;;18.40;71.20;;;;;;1478457;40;20361;-59
2021/06/06 04:59:24;;;;;;;30.20;21.17;;;18.40;71.20;;;;;;1480745;40;20033;-59
2021/06/06 05:00:46;;;;;;;32.80;21.45;;;18.40;71.30;;;;;;1479146;40;20036;-59
2021/06/06 05:02:09;;;;;;;29.02;20.77;;;18.40;71.30;;;;;;1480723;40;20043;-59
2021/06/06 05:03:30;;;;;;;30.90;21.23;;;18.40;71.30;;;;;;1480962;40;20159;-59
2021/06/06 05:04:51;;;;;;;33.05;21.27;;;18.40;71.30;;;;;;1480381;40;20076;-59
2021/06/06 05:06:12;;;;;;;28.02;20.85;;;18.40;71.20;;;;;;1481420;40;20036;-59
2021/06/06 05:07:34;;;;;;;31.70;21.42;;;18.40;71.20;;;;;;1480047;40;20090;-59
2021/06/06 05:08:55;;;;;;;29.13;20.52;;;18.40;71.20;;;;;;1480915;40;20028;-60
2021/06/06 05:10:16;;;;;;;30.73;21.50;;;18.40;71.20;;;;;;1481557;40;20376;-59
2021/06/06 05:11:37;;;;;;;38.33;22.60;;;18.40;71.20;;;;;;1479091;40;20048;-60
2021/06/06 05:12:58;;;;;;;31.88;21.30;;;18.40;71.30;;;;;;1482272;40;20113;-59
2021/06/06 05:14:19;;;;;;;30.23;21.83;;;18.40;71.40;;;;;;1479444;40;20038;-59
2021/06/06 05:15:40;;;;;;;30.95;21.67;;;18.40;71.40;;;;;;1479966;40;20052;-59
2021/06/06 05:17:03;;;;;;;32.28;21.88;;;18.40;71.40;;;;;;1480682;40;20056;-59
2021/06/06 05:18:24;;;;;;;33.25;22.10;;;18.40;71.40;;;;;;1479885;40;20452;-59
2021/06/06 05:19:45;;;;;;;34.10;22.30;;;18.40;71.40;;;;;;1481922;40;20044;-59
2021/06/06 05:21:06;;;;;;;32.92;23.15;;;18.40;71.50;;;;;;1479832;40;20037;-59
2021/06/06 05:22:27;;;;;;;31.52;21.88;;;18.40;71.50;;;;;;1481270;40;20025;-59
2021/06/06 05:23:48;;;;;;;32.88;21.35;;;18.40;71.60;;;;;;1482105;40;20362;-59
2021/06/06 05:25:10;;;;;;;30.75;21.83;;;18.40;71.50;;;;;;1478630;40;20134;-59
2021/06/06 05:26:31;;;;;;;30.80;21.20;;;18.40;71.60;;;;;;1477178;40;20029;-60
2021/06/06 05:27:52;;;;;;;29.83;21.25;;;18.30;71.50;;;;;;1479355;40;20037;-60
2021/06/06 05:29:13;;;;;;;30.30;21.60;;;18.40;71.50;;;;;;1477983;40;20065;-59
2021/06/06 05:30:36;;;;;;;35.30;21.73;;;18.40;71.50;;;;;;1481148;40;20351;-59
2021/06/06 05:31:57;;;;;;;30.63;21.70;;;18.40;71.50;;;;;;1480433;40;20037;-59
2021/06/06 05:33:19;;;;;;;34.63;23.13;;;18.40;71.50;;;;;;1481807;40;20024;-60
2021/06/06 05:34:42;;;;;;;32.47;20.00;;;18.40;71.60;;;;;;1479241;40;20068;-59
2021/06/06 05:36:03;;;;;;;31.50;22.05;;;18.40;71.60;;;;;;1482371;40;20045;-59
2021/06/06 05:37:24;;;;;;;31.33;21.27;;;18.40;71.60;;;;;;1480254;40;20039;-59
2021/06/06 05:38:45;;;;;;;30.02;21.48;;;18.40;71.60;;;;;;1481202;39;20361;-58
2021/06/06 05:40:06;;;;;;;31.63;21.85;;;18.40;71.60;;;;;;1481835;40;20090;-60
2021/06/06 05:41:27;;;;;;;31.15;22.48;;;18.40;71.60;;;;;;1481059;40;20122;-59
2021/06/06 05:42:48;;;;;;;33.08;22.48;;;18.40;71.60;;;;;;1478499;40;20041;-60
2021/06/06 05:44:09;;;;;;;32.58;22.08;;;18.40;71.60;;;;;;1477463;40;21666;-59
2021/06/06 05:45:31;;;;;;;31.60;22.88;;;18.40;71.60;;;;;;1478500;40;20351;-59
2021/06/06 05:46:52;;;;;;;29.92;20.70;;;18.40;71.60;;;;;;1479234;40;20048;-60
2021/06/06 05:48:15;;;;;;;30.40;20.48;;;18.40;71.70;;;;;;1480692;40;20123;-59
2021/06/06 05:49:36;;;;;;;30.23;21.88;;;18.40;71.70;;;;;;1481332;40;20036;-59
2021/06/06 05:51:01;;;;;;;29.33;21.35;;;18.40;71.70;;;;;;1480435;40;20476;-59
2021/06/06 05:52:22;;;;;;;30.50;22.52;;;18.40;71.80;;;;;;1481397;40;20038;-59
2021/06/06 05:53:44;;;;;;;35.20;23.98;;;18.40;71.70;;;;;;1479221;40;20103;-59
2021/06/06 05:55:07;;;;;;;32.05;21.45;;;18.50;71.80;;;;;;1478915;40;20731;-59
2021/06/06 05:56:27;;;;;;;35.67;22.08;;;18.50;71.80;;;;;;1481980;40;20032;-59
2021/06/06 05:57:49;;;;;;;30.38;22.00;;;18.50;71.80;;;;;;1479391;40;20056;-59
2021/06/06 05:59:10;;;;;;;33.83;23.75;;;18.50;71.80;;;;;;1482105;40;20039;-59
2021/06/06 06:00:37;;;;;;;34.63;22.17;;;18.50;71.80;;;;;;1479149;40;20130;-60
2021/06/06 06:01:58;;;;;;;32.97;21.77;;;18.50;71.90;;;;;;1480689;40;20065;-60
2021/06/06 06:03:21;;;;;;;34.95;23.33;;;18.50;71.80;;;;;;1480207;40;20025;-59
2021/06/06 06:04:41;;;;;;;29.98;21.85;;;18.50;71.80;;;;;;1480695;40;20044;-59
2021/06/06 06:06:03;;;;;;;32.60;23.25;;;18.50;71.70;;;;;;1477749;40;20041;-59
2021/06/06 06:07:24;;;;;;;32.53;22.42;;;18.50;71.70;;;;;;1480638;40;20037;-59
2021/06/06 06:08:46;;;;;;;32.03;22.00;;;18.50;71.70;;;;;;1480600;40;20072;-59
2021/06/06 06:10:09;;;;;;;33.53;21.98;;;18.50;71.60;;;;;;1481260;40;20387;-60
2021/06/06 06:11:30;;;;;;;31.60;21.33;;;18.50;71.60;;;;;;1479916;40;20021;-59
2021/06/06 06:12:51;;;;;;;28.45;20.02;;;18.50;71.50;;;;;;1481674;40;20044;-58
2021/06/06 06:14:12;;;;;;;33.45;22.00;;;18.50;71.60;;;;;;1479778;40;20044;-59
2021/06/06 06:15:33;;;;;;;29.25;22.10;;;18.50;71.60;;;;;;1476835;40;20123;-59
2021/06/06 06:16:54;;;;;;;32.80;22.17;;;18.60;71.60;;;;;;1479491;40;20553;-59
2021/06/06 06:18:16;;;;;;;28.58;20.48;;;18.50;71.50;;;;;;1481354;40;20395;-59
2021/06/06 06:19:37;;;;;;;33.70;21.58;;;18.50;71.50;;;;;;1479370;40;20037;-59
2021/06/06 06:20:59;;;;;;;32.70;21.15;;;18.50;71.50;;;;;;1480609;40;20099;-59
2021/06/06 06:22:20;;;;;;;28.23;21.02;;;18.60;71.60;;;;;;1480909;40;20016;-59
2021/06/06 06:23:42;;;;;;;28.23;20.98;;;18.60;71.50;;;;;;1479317;40;20037;-59
2021/06/06 06:25:07;;;;;;;31.70;21.20;;;18.60;71.50;;;;;;1481809;40;20047;-59
2021/06/06 06:26:29;;;;;;;29.33;20.83;;;18.60;71.50;;;;;;1477253;40;20017;-59
2021/06/06 06:27:49;;;;;;;26.38;19.50;;;18.60;71.50;;;;;;1479004;40;20385;-59
2021/06/06 06:29:12;;;;;;;25.25;19.35;;;18.60;71.40;;;;;;1479285;40;20021;-59
2021/06/06 06:30:35;;;;;;;28.15;19.50;;;18.60;71.50;;;;;;1477292;40;20071;-59
2021/06/06 06:31:57;;;;;;;26.27;19.63;;;18.60;71.50;;;;;;1482209;40;20130;-59
2021/06/06 06:33:18;;;;;;;24.92;18.55;;;18.60;71.40;;;;;;1480092;40;20037;-59
2021/06/06 06:34:39;;;;;;;24.08;18.90;;;18.60;71.30;;;;;;1482359;40;20037;-59
2021/06/06 06:36:00;;;;;;;24.90;17.88;;;18.60;71.30;;;;;;1480596;40;20487;-59
2021/06/06 06:37:22;;;;;;;28.35;19.17;;;18.60;71.30;;;;;;1480698;40;20021;-60
2021/06/06 06:38:45;;;;;;;23.92;18.23;;;18.60;71.30;;;;;;1480642;40;20476;-59
2021/06/06 06:40:08;;;;;;;25.67;18.38;;;18.60;71.30;;;;;;1478957;40;20036;-59
2021/06/06 06:41:30;;;;;;;27.10;18.08;;;18.60;71.30;;;;;;1479391;40;20312;-59
2021/06/06 06:42:51;;;;;;;25.40;18.17;;;18.60;71.30;;;;;;1477431;40;20037;-59
2021/06/06 06:44:12;;;;;;;24.85;17.88;;;18.60;71.20;;;;;;1480043;40;20043;-59
2021/06/06 06:45:37;;;;;;;22.17;17.20;;;18.60;71.00;;;;;;1480110;40;20377;-59
2021/06/06 06:46:57;;;;;;;23.33;17.13;;;18.60;71.10;;;;;;1481493;40;20044;-59
2021/06/06 06:48:21;;;;;;;21.42;16.10;;;18.60;71.00;;;;;;1481522;40;20040;-59
2021/06/06 06:49:42;;;;;;;22.10;16.58;;;18.50;70.90;;;;;;1479177;40;20270;-58
2021/06/06 06:51:03;;;;;;;22.38;17.25;;;18.60;70.90;;;;;;1480713;40;20088;-59
2021/06/06 06:52:25;;;;;;;21.88;16.55;;;18.50;70.90;;;;;;1480125;40;20347;-60
2021/06/06 06:53:46;;;;;;;22.38;16.75;;;18.50;71.00;;;;;;1481616;40;20557;-59
2021/06/06 06:55:19;;;;;;;23.35;18.00;;;18.50;71.00;;;;;;1480328;40;20052;-59
2021/06/06 06:56:40;;;;;;;24.45;17.45;;;18.50;71.10;;;;;;1479190;40;20074;-59
2021/06/06 06:58:03;;;;;;;27.08;18.00;;;18.50;71.10;;;;;;1480641;40;20324;-60
2021/06/06 06:59:27;;;;;;;26.75;18.70;;;18.50;71.20;;;;;;1481147;40;20032;-60
2021/06/06 07:00:51;;;;;;;26.13;18.17;;;18.50;71.20;;;;;;1479010;40;20033;-59
2021/06/06 07:02:12;;;;;;;28.45;20.00;;;18.50;71.20;;;;;;1480860;40;20041;-59
2021/06/06 07:03:34;;;;;;;28.42;20.05;;;18.60;71.20;;;;;;1479948;40;20021;-59
2021/06/06 07:04:55;;;;;;;28.65;20.20;;;18.50;71.20;;;;;;1479958;40;20040;-59
2021/06/06 07:06:16;;;;;;;24.58;18.77;;;18.50;71.20;;;;;;1481798;40;20120;-59
2021/06/06 07:07:37;;;;;;;24.45;18.70;;;18.60;71.30;;;;;;1480297;40;20033;-59
2021/06/06 07:08:58;;;;;;;25.88;19.17;;;18.50;71.20;;;;;;1479777;40;20057;-60